sensor_id;sensor_type;location;lat;lon;timestamp;temperature;humidity
53645;DHT22;39547;45.554;12.068;2023-11-22T00:01:16;8.60;89.50
53645;DHT22;39547;45.554;12.068;2023-11-22T00:07:18;8.60;89.30
53645;DHT22;39547;45.554;12.068;2023-11-22T00:13:20;8.50;88.70
53645;DHT22;39547;45.554;12.068;2023-11-22T00:19:21;8.40;88.70
53645;DHT22;39547;45.554;12.068;2023-11-22T00:25:24;8.30;88.90
53645;DHT22;39547;45.554;12.068;2023-11-22T00:31:26;8.20;89.00
53645;DHT22;39547;45.554;12.068;2023-11-22T00:37:27;8.20;89.20
53645;DHT22;39547;45.554;12.068;2023-11-22T00:43:29;8.20;89.30
53645;DHT22;39547;45.554;12.068;2023-11-22T00:49:31;8.20;89.60
53645;DHT22;39547;45.554;12.068;2023-11-22T00:55:32;8.20;89.70
53645;DHT22;39547;45.554;12.068;2023-11-22T01:01:33;8.10;89.60
53645;DHT22;39547;45.554;12.068;2023-11-22T01:07:35;8.10;89.20
53645;DHT22;39547;45.554;12.068;2023-11-22T01:13:36;8.00;88.90
53645;DHT22;39547;45.554;12.068;2023-11-22T01:19:42;7.90;88.70
53645;DHT22;39547;45.554;12.068;2023-11-22T01:25:43;7.90;89.10
53645;DHT22;39547;45.554;12.068;2023-11-22T01:31:45;7.90;89.50
53645;DHT22;39547;45.554;12.068;2023-11-22T01:37:46;8.00;89.60
53645;DHT22;39547;45.554;12.068;2023-11-22T01:43:47;7.90;89.30
53645;DHT22;39547;45.554;12.068;2023-11-22T01:49:49;7.80;89.40
53645;DHT22;39547;45.554;12.068;2023-11-22T01:55:50;7.70;89.30
53645;DHT22;39547;45.554;12.068;2023-11-22T02:01:53;7.70;89.30
53645;DHT22;39547;45.554;12.068;2023-11-22T02:07:55;7.70;89.40
53645;DHT22;39547;45.554;12.068;2023-11-22T02:13:58;7.60;89.20
53645;DHT22;39547;45.554;12.068;2023-11-22T02:19:59;7.50;89.20
53645;DHT22;39547;45.554;12.068;2023-11-22T02:26:01;7.40;89.40
53645;DHT22;39547;45.554;12.068;2023-11-22T02:32:02;7.40;89.40
53645;DHT22;39547;45.554;12.068;2023-11-22T02:38:06;7.30;89.20
53645;DHT22;39547;45.554;12.068;2023-11-22T02:44:08;7.30;89.60
53645;DHT22;39547;45.554;12.068;2023-11-22T02:50:10;7.30;89.00
53645;DHT22;39547;45.554;12.068;2023-11-22T02:56:12;7.20;88.70
53645;DHT22;39547;45.554;12.068;2023-11-22T03:02:14;7.20;88.20
53645;DHT22;39547;45.554;12.068;2023-11-22T03:08:18;7.10;88.10
53645;DHT22;39547;45.554;12.068;2023-11-22T03:14:19;7.10;88.40
53645;DHT22;39547;45.554;12.068;2023-11-22T03:20:21;7.10;88.40
53645;DHT22;39547;45.554;12.068;2023-11-22T03:26:22;7.10;88.70
53645;DHT22;39547;45.554;12.068;2023-11-22T03:32:24;7.10;88.70
53645;DHT22;39547;45.554;12.068;2023-11-22T03:38:25;7.00;88.30
53645;DHT22;39547;45.554;12.068;2023-11-22T03:44:26;7.00;88.40
53645;DHT22;39547;45.554;12.068;2023-11-22T03:50:28;7.00;88.60
53645;DHT22;39547;45.554;12.068;2023-11-22T03:56:30;7.00;88.80
53645;DHT22;39547;45.554;12.068;2023-11-22T04:02:32;7.00;88.40
53645;DHT22;39547;45.554;12.068;2023-11-22T04:08:33;6.90;88.20
53645;DHT22;39547;45.554;12.068;2023-11-22T04:14:35;6.90;88.50
53645;DHT22;39547;45.554;12.068;2023-11-22T04:20:36;6.90;88.80
53645;DHT22;39547;45.554;12.068;2023-11-22T04:26:38;6.80;88.10
53645;DHT22;39547;45.554;12.068;2023-11-22T04:32:40;6.70;88.60
53645;DHT22;39547;45.554;12.068;2023-11-22T04:38:45;6.70;88.20
53645;DHT22;39547;45.554;12.068;2023-11-22T04:44:47;6.70;88.50
53645;DHT22;39547;45.554;12.068;2023-11-22T04:50:48;6.70;88.20
53645;DHT22;39547;45.554;12.068;2023-11-22T04:56:50;6.60;87.90
53645;DHT22;39547;45.554;12.068;2023-11-22T05:02:51;6.70;88.50
53645;DHT22;39547;45.554;12.068;2023-11-22T05:08:53;6.70;88.80
53645;DHT22;39547;45.554;12.068;2023-11-22T05:14:56;6.70;87.80
53645;DHT22;39547;45.554;12.068;2023-11-22T05:20:57;6.60;87.70
53645;DHT22;39547;45.554;12.068;2023-11-22T05:26:59;6.60;88.50
53645;DHT22;39547;45.554;12.068;2023-11-22T05:33:00;6.60;88.80
53645;DHT22;39547;45.554;12.068;2023-11-22T05:39:02;6.60;88.40
53645;DHT22;39547;45.554;12.068;2023-11-22T05:45:05;6.60;88.10
53645;DHT22;39547;45.554;12.068;2023-11-22T05:51:07;6.50;88.40
53645;DHT22;39547;45.554;12.068;2023-11-22T05:57:09;6.50;88.20
53645;DHT22;39547;45.554;12.068;2023-11-22T06:03:11;6.50;88.20
53645;DHT22;39547;45.554;12.068;2023-11-22T06:09:14;6.50;87.40
53645;DHT22;39547;45.554;12.068;2023-11-22T06:15:15;6.40;87.10
53645;DHT22;39547;45.554;12.068;2023-11-22T06:21:17;6.40;87.00
53645;DHT22;39547;45.554;12.068;2023-11-22T06:27:18;6.30;87.20
53645;DHT22;39547;45.554;12.068;2023-11-22T06:33:23;6.30;86.90
53645;DHT22;39547;45.554;12.068;2023-11-22T06:39:24;6.20;86.70
53645;DHT22;39547;45.554;12.068;2023-11-22T06:45:26;6.20;87.40
53645;DHT22;39547;45.554;12.068;2023-11-22T06:51:28;6.20;87.30
53645;DHT22;39547;45.554;12.068;2023-11-22T06:57:29;6.20;86.90
53645;DHT22;39547;45.554;12.068;2023-11-22T07:03:31;6.30;87.10
53645;DHT22;39547;45.554;12.068;2023-11-22T07:09:32;6.40;86.90
53645;DHT22;39547;45.554;12.068;2023-11-22T07:15:34;6.50;87.10
53645;DHT22;39547;45.554;12.068;2023-11-22T07:21:35;6.70;86.60
53645;DHT22;39547;45.554;12.068;2023-11-22T07:27:39;6.80;87.50
53645;DHT22;39547;45.554;12.068;2023-11-22T07:33:40;7.00;87.50
53645;DHT22;39547;45.554;12.068;2023-11-22T07:39:43;7.10;87.70
53645;DHT22;39547;45.554;12.068;2023-11-22T07:45:44;7.30;87.10
53645;DHT22;39547;45.554;12.068;2023-11-22T07:51:46;7.40;86.50
53645;DHT22;39547;45.554;12.068;2023-11-22T07:57:48;7.60;87.00
53645;DHT22;39547;45.554;12.068;2023-11-22T08:03:52;7.70;87.60
53645;DHT22;39547;45.554;12.068;2023-11-22T08:09:53;8.00;87.80
53645;DHT22;39547;45.554;12.068;2023-11-22T08:15:55;8.20;88.30
53645;DHT22;39547;45.554;12.068;2023-11-22T08:21:57;8.40;88.10
53645;DHT22;39547;45.554;12.068;2023-11-22T08:27:58;8.70;88.30
53645;DHT22;39547;45.554;12.068;2023-11-22T08:34:02;8.90;88.70
53645;DHT22;39547;45.554;12.068;2023-11-22T08:40:09;9.20;88.90
53645;DHT22;39547;45.554;12.068;2023-11-22T08:46:12;9.40;88.70
53645;DHT22;39547;45.554;12.068;2023-11-22T08:52:15;9.70;87.50
53645;DHT22;39547;45.554;12.068;2023-11-22T08:58:17;9.90;87.90
53645;DHT22;39547;45.554;12.068;2023-11-22T09:04:18;10.20;88.10
53645;DHT22;39547;45.554;12.068;2023-11-22T09:10:21;10.40;87.70
53645;DHT22;39547;45.554;12.068;2023-11-22T09:16:23;10.60;88.00
53645;DHT22;39547;45.554;12.068;2023-11-22T09:22:26;10.80;88.10
53645;DHT22;39547;45.554;12.068;2023-11-22T09:28:28;11.00;88.00
53645;DHT22;39547;45.554;12.068;2023-11-22T09:34:29;11.10;88.20
53645;DHT22;39547;45.554;12.068;2023-11-22T09:40:31;11.30;88.20
53645;DHT22;39547;45.554;12.068;2023-11-22T09:46:35;11.40;87.80
53645;DHT22;39547;45.554;12.068;2023-11-22T09:52:40;11.60;87.60
53645;DHT22;39547;45.554;12.068;2023-11-22T09:58:43;11.70;87.60
53645;DHT22;39547;45.554;12.068;2023-11-22T10:04:44;11.90;87.50
53645;DHT22;39547;45.554;12.068;2023-11-22T10:10:46;12.00;87.20
53645;DHT22;39547;45.554;12.068;2023-11-22T10:17:03;12.20;86.30
53645;DHT22;39547;45.554;12.068;2023-11-22T10:23:10;12.40;86.10
53645;DHT22;39547;45.554;12.068;2023-11-22T10:29:12;12.60;85.30
53645;DHT22;39547;45.554;12.068;2023-11-22T10:35:14;12.70;84.90
53645;DHT22;39547;45.554;12.068;2023-11-22T10:41:16;12.80;84.80
53645;DHT22;39547;45.554;12.068;2023-11-22T10:47:17;13.00;85.00
53645;DHT22;39547;45.554;12.068;2023-11-22T10:53:34;13.10;85.00
53645;DHT22;39547;45.554;12.068;2023-11-22T10:59:36;13.10;84.40
53645;DHT22;39547;45.554;12.068;2023-11-22T11:05:49;13.20;83.70
53645;DHT22;39547;45.554;12.068;2023-11-22T11:11:51;13.40;83.50
53645;DHT22;39547;45.554;12.068;2023-11-22T11:17:53;13.40;83.50
53645;DHT22;39547;45.554;12.068;2023-11-22T11:23:55;13.60;82.80
53645;DHT22;39547;45.554;12.068;2023-11-22T11:36:52;13.80;82.60
53645;DHT22;39547;45.554;12.068;2023-11-22T11:42:58;13.80;82.20
53645;DHT22;39547;45.554;12.068;2023-11-22T11:49:04;13.90;81.20
53645;DHT22;39547;45.554;12.068;2023-11-22T11:55:10;14.10;81.30
53645;DHT22;39547;45.554;12.068;2023-11-22T12:01:14;14.20;81.30
53645;DHT22;39547;45.554;12.068;2023-11-22T12:07:17;14.20;81.50
53645;DHT22;39547;45.554;12.068;2023-11-22T12:13:20;14.30;80.30
53645;DHT22;39547;45.554;12.068;2023-11-22T12:19:23;14.50;81.50
53645;DHT22;39547;45.554;12.068;2023-11-22T12:25:32;14.50;81.00
53645;DHT22;39547;45.554;12.068;2023-11-22T12:31:50;14.70;80.70
53645;DHT22;39547;45.554;12.068;2023-11-22T12:37:54;14.60;79.90
53645;DHT22;39547;45.554;12.068;2023-11-22T12:44:06;14.70;80.50
53645;DHT22;39547;45.554;12.068;2023-11-22T12:50:08;14.70;78.70
53645;DHT22;39547;45.554;12.068;2023-11-22T12:56:29;14.70;78.50
53645;DHT22;39547;45.554;12.068;2023-11-22T13:02:31;14.70;79.70
53645;DHT22;39547;45.554;12.068;2023-11-22T13:08:32;14.70;80.00
53645;DHT22;39547;45.554;12.068;2023-11-22T13:14:34;14.60;80.10
53645;DHT22;39547;45.554;12.068;2023-11-22T13:20:39;14.50;79.50
53645;DHT22;39547;45.554;12.068;2023-11-22T13:26:41;14.60;80.70
53645;DHT22;39547;45.554;12.068;2023-11-22T13:32:44;14.40;81.00
53645;DHT22;39547;45.554;12.068;2023-11-22T13:38:45;14.30;80.50
53645;DHT22;39547;45.554;12.068;2023-11-22T13:44:47;14.20;81.30
53645;DHT22;39547;45.554;12.068;2023-11-22T13:50:48;14.00;81.70
53645;DHT22;39547;45.554;12.068;2023-11-22T13:56:50;13.90;81.80
53645;DHT22;39547;45.554;12.068;2023-11-22T14:02:54;13.80;82.30
53645;DHT22;39547;45.554;12.068;2023-11-22T14:08:57;13.70;82.60
53645;DHT22;39547;45.554;12.068;2023-11-22T14:14:59;13.50;83.10
53645;DHT22;39547;45.554;12.068;2023-11-22T14:21:01;13.50;82.90
53645;DHT22;39547;45.554;12.068;2023-11-22T14:27:04;13.40;83.10
53645;DHT22;39547;45.554;12.068;2023-11-22T14:33:06;13.30;83.40
53645;DHT22;39547;45.554;12.068;2023-11-22T14:39:07;13.20;83.50
53645;DHT22;39547;45.554;12.068;2023-11-22T14:45:13;13.20;83.20
53645;DHT22;39547;45.554;12.068;2023-11-22T14:51:15;13.10;83.40
53645;DHT22;39547;45.554;12.068;2023-11-22T14:57:17;12.90;84.00
53645;DHT22;39547;45.554;12.068;2023-11-22T15:03:18;12.80;84.30
53645;DHT22;39547;45.554;12.068;2023-11-22T15:09:21;12.70;84.70
53645;DHT22;39547;45.554;12.068;2023-11-22T15:15:23;12.50;85.00
53645;DHT22;39547;45.554;12.068;2023-11-22T15:21:27;12.40;85.40
53645;DHT22;39547;45.554;12.068;2023-11-22T15:27:28;12.20;85.70
53645;DHT22;39547;45.554;12.068;2023-11-22T15:33:30;12.10;86.00
53645;DHT22;39547;45.554;12.068;2023-11-22T15:39:31;12.00;86.20
53645;DHT22;39547;45.554;12.068;2023-11-22T15:45:33;11.80;86.50
53645;DHT22;39547;45.554;12.068;2023-11-22T15:51:35;11.70;86.70
53645;DHT22;39547;45.554;12.068;2023-11-22T15:57:37;11.50;86.80
53645;DHT22;39547;45.554;12.068;2023-11-22T16:03:39;11.40;87.00
53645;DHT22;39547;45.554;12.068;2023-11-22T16:09:40;11.30;87.20
53645;DHT22;39547;45.554;12.068;2023-11-22T16:15:44;11.20;87.30
53645;DHT22;39547;45.554;12.068;2023-11-22T16:21:46;11.10;87.20
53645;DHT22;39547;45.554;12.068;2023-11-22T16:27:49;11.10;87.60
53645;DHT22;39547;45.554;12.068;2023-11-22T16:33:50;10.90;87.80
53645;DHT22;39547;45.554;12.068;2023-11-22T16:39:52;10.80;87.90
53645;DHT22;39547;45.554;12.068;2023-11-22T16:45:54;10.80;88.10
53645;DHT22;39547;45.554;12.068;2023-11-22T16:51:55;10.70;88.20
53645;DHT22;39547;45.554;12.068;2023-11-22T16:58:03;10.70;88.30
53645;DHT22;39547;45.554;12.068;2023-11-22T17:04:05;10.60;88.40
53645;DHT22;39547;45.554;12.068;2023-11-22T17:10:08;10.50;88.40
53645;DHT22;39547;45.554;12.068;2023-11-22T17:16:10;10.50;88.50
53645;DHT22;39547;45.554;12.068;2023-11-22T17:22:11;10.40;88.60
53645;DHT22;39547;45.554;12.068;2023-11-22T17:28:13;10.30;88.70
53645;DHT22;39547;45.554;12.068;2023-11-22T17:34:14;10.20;88.70
53645;DHT22;39547;45.554;12.068;2023-11-22T17:40:16;10.20;88.80
53645;DHT22;39547;45.554;12.068;2023-11-22T17:46:18;10.20;88.90
53645;DHT22;39547;45.554;12.068;2023-11-22T17:52:20;10.20;88.90
53645;DHT22;39547;45.554;12.068;2023-11-22T17:58:21;10.20;88.90
53645;DHT22;39547;45.554;12.068;2023-11-22T18:04:23;10.20;89.00
53645;DHT22;39547;45.554;12.068;2023-11-22T18:10:25;10.10;89.00
53645;DHT22;39547;45.554;12.068;2023-11-22T18:16:26;10.10;89.00
53645;DHT22;39547;45.554;12.068;2023-11-22T18:22:28;10.10;89.10
53645;DHT22;39547;45.554;12.068;2023-11-22T18:28:29;10.00;89.10
53645;DHT22;39547;45.554;12.068;2023-11-22T18:34:31;10.00;88.90
53645;DHT22;39547;45.554;12.068;2023-11-22T18:40:33;9.90;88.50
53645;DHT22;39547;45.554;12.068;2023-11-22T18:46:35;9.80;88.60
53645;DHT22;39547;45.554;12.068;2023-11-22T18:52:36;9.70;88.90
53645;DHT22;39547;45.554;12.068;2023-11-22T18:58:38;9.70;89.00
53645;DHT22;39547;45.554;12.068;2023-11-22T19:04:40;9.70;89.10
53645;DHT22;39547;45.554;12.068;2023-11-22T19:10:43;9.60;89.00
53645;DHT22;39547;45.554;12.068;2023-11-22T19:16:45;9.60;89.00
53645;DHT22;39547;45.554;12.068;2023-11-22T19:22:46;9.50;89.10
53645;DHT22;39547;45.554;12.068;2023-11-22T19:28:48;9.40;88.00
53645;DHT22;39547;45.554;12.068;2023-11-22T19:34:50;9.40;88.50
53645;DHT22;39547;45.554;12.068;2023-11-22T19:40:51;9.30;88.50
53645;DHT22;39547;45.554;12.068;2023-11-22T19:46:53;9.20;88.40
53645;DHT22;39547;45.554;12.068;2023-11-22T19:52:55;9.20;88.30
53645;DHT22;39547;45.554;12.068;2023-11-22T19:58:56;9.20;88.70
53645;DHT22;39547;45.554;12.068;2023-11-22T20:04:58;9.20;88.30
53645;DHT22;39547;45.554;12.068;2023-11-22T20:11:00;9.20;88.20
53645;DHT22;39547;45.554;12.068;2023-11-22T20:17:02;9.30;88.00
53645;DHT22;39547;45.554;12.068;2023-11-22T20:23:05;9.30;88.20
53645;DHT22;39547;45.554;12.068;2023-11-22T20:29:07;9.20;88.40
53645;DHT22;39547;45.554;12.068;2023-11-22T20:35:09;9.20;88.40
53645;DHT22;39547;45.554;12.068;2023-11-22T20:41:11;9.20;86.40
53645;DHT22;39547;45.554;12.068;2023-11-22T20:47:12;9.20;87.40
53645;DHT22;39547;45.554;12.068;2023-11-22T20:53:14;9.20;87.30
53645;DHT22;39547;45.554;12.068;2023-11-22T20:59:16;9.20;87.50
53645;DHT22;39547;45.554;12.068;2023-11-22T21:05:18;9.30;87.50
53645;DHT22;39547;45.554;12.068;2023-11-22T21:11:20;9.20;87.60
53645;DHT22;39547;45.554;12.068;2023-11-22T21:17:22;9.20;87.20
53645;DHT22;39547;45.554;12.068;2023-11-22T21:23:25;9.20;87.40
53645;DHT22;39547;45.554;12.068;2023-11-22T21:29:26;9.20;87.30
53645;DHT22;39547;45.554;12.068;2023-11-22T21:35:28;9.20;87.10
53645;DHT22;39547;45.554;12.068;2023-11-22T21:41:31;9.30;87.10
53645;DHT22;39547;45.554;12.068;2023-11-22T21:47:33;9.30;86.90
53645;DHT22;39547;45.554;12.068;2023-11-22T21:53:40;9.30;86.70
53645;DHT22;39547;45.554;12.068;2023-11-22T21:59:41;9.30;86.50
53645;DHT22;39547;45.554;12.068;2023-11-22T22:05:43;9.30;86.40
53645;DHT22;39547;45.554;12.068;2023-11-22T22:11:46;9.40;86.40
53645;DHT22;39547;45.554;12.068;2023-11-22T22:17:48;9.30;86.40
53645;DHT22;39547;45.554;12.068;2023-11-22T22:23:49;9.30;86.20
53645;DHT22;39547;45.554;12.068;2023-11-22T22:29:51;9.30;86.10
53645;DHT22;39547;45.554;12.068;2023-11-22T22:35:52;9.20;86.10
53645;DHT22;39547;45.554;12.068;2023-11-22T22:41:54;9.20;86.20
53645;DHT22;39547;45.554;12.068;2023-11-22T22:47:55;9.20;86.00
53645;DHT22;39547;45.554;12.068;2023-11-22T22:53:57;9.10;86.00
53645;DHT22;39547;45.554;12.068;2023-11-22T22:59:59;9.00;86.40
53645;DHT22;39547;45.554;12.068;2023-11-22T23:06:00;9.00;86.50
53645;DHT22;39547;45.554;12.068;2023-11-22T23:12:02;8.90;86.60
53645;DHT22;39547;45.554;12.068;2023-11-22T23:18:04;8.90;86.70
53645;DHT22;39547;45.554;12.068;2023-11-22T23:24:07;8.90;86.60
53645;DHT22;39547;45.554;12.068;2023-11-22T23:30:11;8.80;86.50
53645;DHT22;39547;45.554;12.068;2023-11-22T23:36:13;8.90;86.50
53645;DHT22;39547;45.554;12.068;2023-11-22T23:42:16;8.80;86.70
53645;DHT22;39547;45.554;12.068;2023-11-22T23:48:17;8.80;86.50
53645;DHT22;39547;45.554;12.068;2023-11-22T23:54:19;8.80;86.50
